createdAt,value
2018-12-10T00:02:25.382Z,3.80
2018-12-10T00:05:36.159Z,3.70
2018-12-10T00:08:44.117Z,3.70
2018-12-10T00:11:53.825Z,3.70
2018-12-10T00:15:05.595Z,3.70
2018-12-10T00:18:10.548Z,3.60
2018-12-10T00:21:15.538Z,3.60
2018-12-10T00:24:20.247Z,3.70
2018-12-10T00:27:25.971Z,3.70
2018-12-10T00:30:30.980Z,3.70
2018-12-10T00:33:35.661Z,3.80
2018-12-10T00:36:40.607Z,3.80
2018-12-10T00:39:46.466Z,3.80
2018-12-10T00:42:51.449Z,3.80
2018-12-10T00:45:56.135Z,3.80
2018-12-10T00:49:01.086Z,3.80
2018-12-10T00:52:05.779Z,3.70
2018-12-10T00:55:10.703Z,3.60
2018-12-10T00:58:16.435Z,3.50
2018-12-10T01:01:21.375Z,3.50
2018-12-10T01:04:26.076Z,3.40
2018-12-10T01:07:31.069Z,3.40
2018-12-10T01:10:35.799Z,3.30
2018-12-10T01:13:41.170Z,3.30
2018-12-10T01:16:46.032Z,3.30
2018-12-10T01:19:51.222Z,3.20
2018-12-10T01:22:56.146Z,3.20
2018-12-10T01:26:01.137Z,3.20
2018-12-10T01:29:05.989Z,3.20
2018-12-10T01:32:10.857Z,3.10
2018-12-10T01:35:15.725Z,3.10
2018-12-10T01:38:20.555Z,3.10
2018-12-10T01:41:25.411Z,3.20
2018-12-10T01:44:30.286Z,3.20
2018-12-10T01:47:35.135Z,3.20
2018-12-10T01:50:40.246Z,3.10
2018-12-10T01:53:45.225Z,3.10
2018-12-10T01:56:56.173Z,3.10
2018-12-10T02:00:01.126Z,3.10
2018-12-10T02:03:05.827Z,3.10
2018-12-10T02:06:10.804Z,3.10
2018-12-10T02:09:15.492Z,3.10
2018-12-10T02:12:20.916Z,3.10
2018-12-10T02:15:25.607Z,3.10
2018-12-10T02:18:30.544Z,3.10
2018-12-10T02:21:35.577Z,3.10
2018-12-10T02:24:46.499Z,3.10
2018-12-10T02:27:51.483Z,3.00
2018-12-10T02:30:56.384Z,3.00
2018-12-10T02:34:01.248Z,3.00
2018-12-10T02:37:06.114Z,3.00
2018-12-10T02:40:17.508Z,3.00
2018-12-10T02:43:22.523Z,3.00
2018-12-10T02:46:27.257Z,3.00
2018-12-10T02:49:33.016Z,3.00
2018-12-10T02:52:38.002Z,3.10
2018-12-10T02:55:42.690Z,3.00
2018-12-10T02:58:47.697Z,3.00
2018-12-10T03:01:53.589Z,3.00
2018-12-10T03:04:58.444Z,3.00
2018-12-10T03:08:09.462Z,3.00
2018-12-10T03:11:20.709Z,3.00
2018-12-10T03:14:25.622Z,3.00
2018-12-10T03:17:30.345Z,3.00
2018-12-10T03:20:35.319Z,3.00
2018-12-10T03:23:40.029Z,3.00
2018-12-10T03:26:50.819Z,3.00
2018-12-10T03:29:55.718Z,3.00
2018-12-10T03:33:00.721Z,3.00
2018-12-10T03:36:06.121Z,2.90
2018-12-10T03:39:11.101Z,2.80
2018-12-10T03:42:21.934Z,2.80
2018-12-10T03:45:26.900Z,2.90
2018-12-10T03:48:31.602Z,2.80
2018-12-10T03:51:42.968Z,2.80
2018-12-10T03:54:47.968Z,2.80
2018-12-10T03:57:53.030Z,2.90
2018-12-10T04:00:57.736Z,2.90
2018-12-10T04:04:02.729Z,2.90
2018-12-10T04:07:07.451Z,2.90
2018-12-10T04:10:12.446Z,2.90
2018-12-10T04:13:17.144Z,2.90
2018-12-10T04:16:21.834Z,3.00
2018-12-10T04:19:32.921Z,3.00
2018-12-10T04:22:43.899Z,3.00
2018-12-10T04:25:48.762Z,3.00
2018-12-10T04:28:53.676Z,3.00
2018-12-10T04:35:15.962Z,3.00
2018-12-10T04:38:22.162Z,3.00
2018-12-10T04:41:26.863Z,3.00
2018-12-10T04:44:31.969Z,3.00
2018-12-10T04:47:36.976Z,3.00
2018-12-10T04:50:41.917Z,3.00
2018-12-10T04:53:46.642Z,3.10
2018-12-10T04:56:52.057Z,3.10
2018-12-10T04:59:57.223Z,3.10
2018-12-10T05:03:02.192Z,3.10
2018-12-10T05:06:07.952Z,3.10
2018-12-10T05:09:14.085Z,3.10
2018-12-10T05:12:19.047Z,3.10
2018-12-10T05:15:31.188Z,3.10
2018-12-10T05:18:36.201Z,3.10
2018-12-10T05:21:41.122Z,3.00
2018-12-10T05:24:46.117Z,2.90
2018-12-10T05:27:50.847Z,3.00
2018-12-10T05:30:55.536Z,3.00
2018-12-10T05:34:00.594Z,3.00
2018-12-10T05:37:05.565Z,3.00
2018-12-10T05:40:16.553Z,3.00
2018-12-10T05:43:23.407Z,3.10
2018-12-10T05:46:28.237Z,3.00
2018-12-10T05:49:39.650Z,3.00
2018-12-10T05:52:50.719Z,3.00
2018-12-10T05:55:56.005Z,2.90
2018-12-10T05:59:06.944Z,2.90
2018-12-10T06:02:11.912Z,2.90
2018-12-10T06:05:16.724Z,2.90
2018-12-10T06:08:27.932Z,2.90
2018-12-10T06:11:33.142Z,2.90
2018-12-10T06:14:44.291Z,2.90
2018-12-10T06:17:49.198Z,2.90
2018-12-10T06:20:54.082Z,2.90
2018-12-10T06:23:58.939Z,2.90
2018-12-10T06:27:04.261Z,2.90
2018-12-10T06:30:09.785Z,3.00
2018-12-10T06:33:21.023Z,3.00
2018-12-10T06:36:26.906Z,3.00
2018-12-10T06:39:31.884Z,3.00
2018-12-10T06:42:36.940Z,3.00
2018-12-10T06:45:41.786Z,3.00
2018-12-10T06:48:46.675Z,3.00
2018-12-10T06:51:51.525Z,3.10
2018-12-10T06:54:56.819Z,3.00
2018-12-10T06:58:02.750Z,3.00
2018-12-10T07:01:07.707Z,3.00
2018-12-10T07:04:18.441Z,3.00
2018-12-10T07:07:29.333Z,3.00
2018-12-10T07:10:34.358Z,3.00
2018-12-10T07:13:45.252Z,3.00
2018-12-10T07:16:50.601Z,3.00
2018-12-10T07:19:55.636Z,3.00
2018-12-10T07:23:00.654Z,3.00
2018-12-10T07:26:05.641Z,3.00
2018-12-10T07:29:10.536Z,3.00
2018-12-10T07:32:21.947Z,3.00
2018-12-10T07:35:33.058Z,3.00
2018-12-10T07:38:44.195Z,3.00
2018-12-10T07:41:55.280Z,3.00
2018-12-10T07:45:00.414Z,3.00
2018-12-10T07:48:11.527Z,3.00
2018-12-10T07:51:22.861Z,3.00
2018-12-10T07:54:34.322Z,3.00
2018-12-10T07:57:39.358Z,3.10
2018-12-10T08:00:44.301Z,3.10
2018-12-10T08:03:55.644Z,3.10
2018-12-10T08:07:06.823Z,3.00
2018-12-10T08:10:11.795Z,3.00
2018-12-10T08:13:16.740Z,3.10
2018-12-10T08:16:27.629Z,3.10
2018-12-10T08:19:32.502Z,3.10
2018-12-10T08:22:37.400Z,3.10
2018-12-10T08:25:48.399Z,3.10
2018-12-10T08:29:07.159Z,3.10
2018-12-10T08:32:06.761Z,3.10
2018-12-10T08:35:17.835Z,3.10
2018-12-10T08:38:29.071Z,3.20
2018-12-10T08:41:34.019Z,3.20
2018-12-10T08:44:38.719Z,3.20
2018-12-10T08:47:49.676Z,3.10
2018-12-10T08:51:00.851Z,3.00
2018-12-10T08:54:13.732Z,3.10
2018-12-10T08:57:18.422Z,3.00
2018-12-10T09:00:29.716Z,3.10
2018-12-10T09:03:35.500Z,3.10
2018-12-10T09:06:40.937Z,3.10
2018-12-10T09:09:52.192Z,3.10
2018-12-10T09:12:57.112Z,3.00
2018-12-10T09:16:01.881Z,3.00
2018-12-10T09:19:13.460Z,3.00
2018-12-10T09:22:18.584Z,3.00
2018-12-10T09:25:29.700Z,3.00
2018-12-10T09:28:35.124Z,3.10
2018-12-10T09:31:45.987Z,3.00
2018-12-10T09:34:57.084Z,3.00
2018-12-10T09:38:01.956Z,3.10
2018-12-10T09:41:06.855Z,3.10
2018-12-10T09:44:11.752Z,3.10
2018-12-10T09:47:16.619Z,3.10
2018-12-10T09:50:22.278Z,3.10
2018-12-10T09:53:27.656Z,3.20
2018-12-10T09:56:32.729Z,3.20
2018-12-10T09:59:37.660Z,3.20
2018-12-10T10:02:42.524Z,3.20
2018-12-10T10:05:47.419Z,3.30
2018-12-10T10:08:58.671Z,3.20
2018-12-10T10:12:09.560Z,3.30
2018-12-10T10:15:15.367Z,3.40
2018-12-10T10:18:26.491Z,3.40
2018-12-10T10:21:31.491Z,3.40
2018-12-10T10:24:36.616Z,3.40
2018-12-10T10:27:47.595Z,3.30
2018-12-10T10:30:52.986Z,3.30
2018-12-10T10:33:57.857Z,3.30
2018-12-10T10:37:03.087Z,3.30
2018-12-10T10:40:09.638Z,3.30
2018-12-10T10:43:14.632Z,3.30
2018-12-10T10:46:26.245Z,3.30
2018-12-10T10:49:31.261Z,3.20
2018-12-10T10:52:36.265Z,3.30
2018-12-10T10:55:47.361Z,3.30
2018-12-10T10:58:58.858Z,3.30
2018-12-10T11:02:09.316Z,3.30
2018-12-10T11:05:14.832Z,3.30
2018-12-10T11:08:22.773Z,3.30
2018-12-10T11:11:27.658Z,3.30
2018-12-10T11:14:32.528Z,3.40
2018-12-10T11:17:37.715Z,3.40
2018-12-10T11:20:42.657Z,3.40
2018-12-10T11:23:48.589Z,3.40
2018-12-10T11:26:53.285Z,3.30
2018-12-10T11:29:58.272Z,3.30
2018-12-10T11:33:08.952Z,3.30
2018-12-10T11:36:13.925Z,3.40
2018-12-10T11:39:25.848Z,3.40
2018-12-10T11:42:31.732Z,3.40
2018-12-10T11:45:36.616Z,3.50
2018-12-10T11:48:41.582Z,3.50
2018-12-10T11:51:52.972Z,3.50
2018-12-10T11:55:04.600Z,3.50
2018-12-10T11:58:10.008Z,3.50
2018-12-10T12:01:14.939Z,3.50
2018-12-10T12:04:19.618Z,3.60
2018-12-10T12:07:24.516Z,3.60
2018-12-10T12:10:29.454Z,3.60
2018-12-10T12:13:40.601Z,3.70
2018-12-10T12:16:46.480Z,3.70
2018-12-10T12:19:51.596Z,3.80
2018-12-10T12:22:56.607Z,3.80
2018-12-10T12:26:02.527Z,3.90
2018-12-10T12:29:07.686Z,3.80
2018-12-10T12:32:13.198Z,3.90
2018-12-10T12:35:24.913Z,4.00
2018-12-10T12:38:29.777Z,4.00
2018-12-10T12:41:34.665Z,4.00
2018-12-10T12:44:45.430Z,4.10
2018-12-10T12:47:50.793Z,4.10
2018-12-10T12:50:55.793Z,4.10
2018-12-10T12:54:01.816Z,4.00
2018-12-10T12:57:06.616Z,4.10
2018-12-10T13:00:12.543Z,4.00
2018-12-10T13:03:17.470Z,4.00
2018-12-10T13:06:28.767Z,4.00
2018-12-10T13:09:34.150Z,3.90
2018-12-10T13:12:45.115Z,3.90
2018-12-10T13:15:49.865Z,3.90
2018-12-10T13:18:54.725Z,3.90
2018-12-10T13:22:06.019Z,3.90
2018-12-10T13:25:17.547Z,3.90
2018-12-10T13:28:22.753Z,3.90
2018-12-10T13:31:29.651Z,3.80
2018-12-10T13:34:40.644Z,3.90
2018-12-10T13:37:46.309Z,3.90
2018-12-10T13:40:52.197Z,3.90
2018-12-10T13:43:57.383Z,3.90
2018-12-10T13:47:02.451Z,3.80
2018-12-10T13:50:08.434Z,3.80
2018-12-10T13:53:13.565Z,3.80
2018-12-10T13:56:19.197Z,3.80
2018-12-10T13:59:30.321Z,3.80
2018-12-10T14:02:35.325Z,3.80
2018-12-10T14:05:40.336Z,3.80
2018-12-10T14:08:45.387Z,3.70
2018-12-10T14:11:50.460Z,3.70
2018-12-10T14:14:55.372Z,3.60
2018-12-10T14:18:00.363Z,3.70
2018-12-10T14:21:07.845Z,3.60
2018-12-10T14:24:18.799Z,3.60
2018-12-10T14:27:23.728Z,3.60
2018-12-10T14:30:29.090Z,3.60
2018-12-10T14:33:35.131Z,3.60
2018-12-10T14:36:40.535Z,3.50
2018-12-10T14:39:45.531Z,3.10
2018-12-10T14:42:58.210Z,2.80
2018-12-10T14:46:03.472Z,2.50
2018-12-10T14:49:15.081Z,2.30
2018-12-10T14:52:26.242Z,2.10
2018-12-10T14:55:32.763Z,1.90
2018-12-10T14:58:40.093Z,1.90
2018-12-10T15:01:46.233Z,1.90
2018-12-10T15:04:51.115Z,1.80
2018-12-10T15:07:56.280Z,1.80
2018-12-10T15:11:01.426Z,1.80
2018-12-10T15:14:06.508Z,1.80
2018-12-10T15:17:11.658Z,1.60
2018-12-10T15:20:17.720Z,1.70
2018-12-10T15:23:22.622Z,1.80
2018-12-10T15:26:27.930Z,1.80
2018-12-10T15:29:40.188Z,1.70
2018-12-10T15:32:51.297Z,1.50
2018-12-10T15:36:03.070Z,1.50
2018-12-10T15:39:08.764Z,1.60
2018-12-10T15:42:20.107Z,1.70
2018-12-10T15:45:25.349Z,1.90
2018-12-10T15:48:36.679Z,1.90
2018-12-10T15:51:41.894Z,2.00
2018-12-10T15:54:53.177Z,1.90
2018-12-10T15:57:58.180Z,1.90
2018-12-10T16:01:05.360Z,1.90
2018-12-10T16:04:16.610Z,2.00
2018-12-10T16:07:21.413Z,1.90
2018-12-10T16:10:32.684Z,1.90
2018-12-10T16:13:37.727Z,2.00
2018-12-10T16:17:14.176Z,2.00
2018-12-10T16:20:25.073Z,2.00
2018-12-10T16:23:37.126Z,2.10
2018-12-10T16:26:42.173Z,2.10
2018-12-10T16:29:53.464Z,2.00
2018-12-10T16:33:05.144Z,2.00
2018-12-10T16:36:18.100Z,2.10
2018-12-10T16:39:29.077Z,2.10
2018-12-10T16:42:40.232Z,2.10
2018-12-10T16:45:45.629Z,2.00
2018-12-10T16:48:50.747Z,2.00
2018-12-10T16:52:01.950Z,1.90
2018-12-10T16:55:13.521Z,1.90
2018-12-10T16:58:18.695Z,1.90
2018-12-10T17:01:23.531Z,1.90
2018-12-10T17:04:36.165Z,1.90
2018-12-10T17:07:41.954Z,1.90
2018-12-10T17:10:52.931Z,1.90
2018-12-10T17:13:58.511Z,1.90
2018-12-10T17:17:04.517Z,2.00
2018-12-10T17:20:11.580Z,1.90
2018-12-10T17:23:17.435Z,2.00
2018-12-10T17:26:22.290Z,1.90
2018-12-10T17:37:09.088Z,1.90
2018-12-10T17:40:20.801Z,2.00
2018-12-10T17:43:27.086Z,1.90
2018-12-10T17:46:34.898Z,2.00
2018-12-10T17:49:40.697Z,2.00
2018-12-10T17:52:45.810Z,2.00
2018-12-10T17:55:57.015Z,2.10
2018-12-10T17:59:02.439Z,2.00
2018-12-10T18:02:08.221Z,2.00
2018-12-10T18:05:13.151Z,2.00
2018-12-10T18:08:18.117Z,2.00
2018-12-10T18:11:29.773Z,1.90
2018-12-10T18:14:40.941Z,1.90
2018-12-10T18:17:52.199Z,2.00
2018-12-10T18:20:58.305Z,2.00
2018-12-10T18:24:09.647Z,2.00
2018-12-10T18:27:14.805Z,2.00
2018-12-10T18:30:25.782Z,2.00
2018-12-10T18:33:31.950Z,2.00
2018-12-10T18:36:38.125Z,1.90
2018-12-10T18:39:43.659Z,2.00
2018-12-10T18:42:48.625Z,2.00
2018-12-10T18:45:53.519Z,2.00
2018-12-10T18:48:58.400Z,2.00
2018-12-10T18:52:04.522Z,2.00
2018-12-10T18:55:15.473Z,2.00
2018-12-10T18:58:21.616Z,2.00
2018-12-10T19:01:26.689Z,2.00
2018-12-10T19:04:32.241Z,2.00
2018-12-10T19:07:43.749Z,2.00
2018-12-10T19:10:54.969Z,2.00
2018-12-10T19:14:06.137Z,2.00
2018-12-10T19:17:11.076Z,2.00
2018-12-10T19:20:22.562Z,2.00
2018-12-10T19:23:33.664Z,2.00
2018-12-10T19:26:45.105Z,2.00
2018-12-10T19:29:49.910Z,2.00
2018-12-10T19:32:54.741Z,2.00
2018-12-10T19:35:59.481Z,2.00
2018-12-10T19:39:08.358Z,2.00
2018-12-10T19:42:13.763Z,2.00
2018-12-10T19:45:18.873Z,2.00
2018-12-10T19:48:23.694Z,2.00
2018-12-10T19:51:35.242Z,2.00
2018-12-10T19:54:40.431Z,2.00
2018-12-10T19:57:45.422Z,2.00
2018-12-10T20:00:51.263Z,2.00
2018-12-10T20:03:57.029Z,2.00
2018-12-10T20:07:07.720Z,2.00
2018-12-10T20:10:19.445Z,2.00
2018-12-10T20:13:24.519Z,2.00
2018-12-10T20:16:36.599Z,2.00
2018-12-10T20:19:42.395Z,2.00
2018-12-10T20:22:50.447Z,2.10
2018-12-10T20:25:56.522Z,2.10
2018-12-10T20:29:02.521Z,2.10
2018-12-10T20:32:13.722Z,2.10
2018-12-10T20:35:24.800Z,2.10
2018-12-10T20:38:29.711Z,2.10
2018-12-10T20:41:35.341Z,2.10
2018-12-10T20:44:40.215Z,2.10
2018-12-10T20:47:51.494Z,2.10
2018-12-10T20:51:02.666Z,2.10
2018-12-10T20:54:07.676Z,2.10
2018-12-10T20:57:13.263Z,2.10
2018-12-10T21:00:24.770Z,2.10
2018-12-10T21:03:29.941Z,2.10
2018-12-10T21:06:41.402Z,2.10
2018-12-10T21:09:46.333Z,2.00
2018-12-10T21:12:51.319Z,2.10
2018-12-10T21:15:56.368Z,2.10
2018-12-10T21:19:01.339Z,2.10
2018-12-10T21:22:07.168Z,2.10
2018-12-10T21:25:12.387Z,2.20
2018-12-10T21:28:17.435Z,2.10
2018-12-10T21:31:22.352Z,2.20
2018-12-10T21:34:27.479Z,2.20
2018-12-10T21:37:32.259Z,2.20
2018-12-10T21:40:43.132Z,2.20
2018-12-10T21:43:54.197Z,2.10
2018-12-10T21:46:59.479Z,2.10
2018-12-10T21:50:05.442Z,2.10
2018-12-10T21:53:10.566Z,2.10
2018-12-10T21:56:22.006Z,2.20
2018-12-10T21:59:27.651Z,2.20
2018-12-10T22:02:33.324Z,2.20
2018-12-10T22:05:38.192Z,2.20
2018-12-10T22:08:43.278Z,2.30
2018-12-10T22:11:48.358Z,2.20
2018-12-10T22:14:59.205Z,2.30
2018-12-10T22:18:10.367Z,2.30
2018-12-10T22:21:22.049Z,2.30
2018-12-10T22:24:27.110Z,2.30
2018-12-10T22:27:32.600Z,2.30
2018-12-10T22:30:37.601Z,2.30
2018-12-10T22:33:48.795Z,2.30
2018-12-10T22:36:53.807Z,2.30
2018-12-10T22:39:58.894Z,2.30
2018-12-10T22:43:05.249Z,2.30
2018-12-10T22:46:17.090Z,2.30
2018-12-10T22:49:22.069Z,2.20
2018-12-10T22:52:33.144Z,2.10
2018-12-10T22:55:37.944Z,2.10
2018-12-10T22:58:42.765Z,2.00
2018-12-10T23:01:47.555Z,2.00
2018-12-10T23:04:52.366Z,2.10
2018-12-10T23:07:58.074Z,2.10
2018-12-10T23:11:02.969Z,2.10
2018-12-10T23:14:07.780Z,2.10
2018-12-10T23:17:13.092Z,2.10
2018-12-10T23:20:18.185Z,2.10
2018-12-10T23:23:24.323Z,2.10
2018-12-10T23:26:29.454Z,2.10
2018-12-10T23:29:34.494Z,2.10
2018-12-10T23:32:39.419Z,2.10
2018-12-10T23:35:44.298Z,2.10
2018-12-10T23:38:49.224Z,2.10
2018-12-10T23:42:00.806Z,2.00
2018-12-10T23:45:06.633Z,2.00
2018-12-10T23:48:12.881Z,2.00
2018-12-10T23:51:18.004Z,2.10
2018-12-10T23:54:23.057Z,2.10
2018-12-10T23:57:28.015Z,2.10
